Time;durP1;ratioP1;P1;durP2;ratioP2;P2;SDS_P1;SDS_P2;PMS_P1;PMS_P2;Temp;Humidity;BMP_temperature;BMP_pressure;BME280_temperature;BME280_humidity;BME280_pressure;Samples;Min_cycle;Max_cycle;Signal;HPM_P1;HPM_P2
2022/10/22 00:00:35;;;;;;;1.50;1.35;;;18.40;99.90;;;;;;5100990;28;20236;-72
2022/10/22 00:03:00;;;;;;;1.40;1.20;;;18.40;99.90;;;;;;5093831;28;20180;-71
2022/10/22 00:05:26;;;;;;;2.60;1.33;;;18.40;99.90;;;;;;5094220;28;20217;-71
2022/10/22 00:07:52;;;;;;;1.60;1.50;;;18.40;99.90;;;;;;5077090;28;20674;-71
2022/10/22 00:10:18;;;;;;;2.92;1.38;;;18.40;99.90;;;;;;5077382;28;20601;-71
2022/10/22 00:12:44;;;;;;;1.70;1.27;;;18.40;99.90;;;;;;5093779;28;20188;-71
2022/10/22 00:15:11;;;;;;;1.33;1.20;;;18.40;99.90;;;;;;5094960;28;20239;-71
2022/10/22 00:17:36;;;;;;;1.52;1.20;;;18.40;99.90;;;;;;5093847;28;20184;-72
2022/10/22 00:20:04;;;;;;;1.52;1.17;;;18.40;99.90;;;;;;5077139;28;20305;-71
2022/10/22 00:22:30;;;;;;;1.33;1.20;;;18.40;99.90;;;;;;5096917;28;20703;-72
2022/10/22 00:24:55;;;;;;;1.60;1.23;;;18.40;99.90;;;;;;5079903;28;20337;-71
2022/10/22 00:27:21;;;;;;;1.42;1.10;;;18.40;99.90;;;;;;5080349;28;20228;-72
2022/10/22 00:29:47;;;;;;;1.40;1.10;;;18.40;99.90;;;;;;5113645;28;20203;-71
2022/10/22 00:32:14;;;;;;;2.00;1.20;;;18.40;99.90;;;;;;5079926;28;20184;-72
2022/10/22 00:34:39;;;;;;;1.30;1.20;;;18.40;99.90;;;;;;5114985;28;20228;-71
2022/10/22 00:37:05;;;;;;;2.70;1.27;;;18.40;99.90;;;;;;5079988;28;20210;-72
2022/10/22 00:39:31;;;;;;;0.95;0.90;;;18.40;99.90;;;;;;5079876;28;20236;-72
2022/10/22 00:41:57;;;;;;;1.48;0.90;;;18.40;99.90;;;;;;5096731;28;20184;-71
2022/10/22 00:45:10;;;;;;;0.88;0.88;;;18.40;99.90;;;;;;5096597;28;20212;-72
2022/10/22 00:47:54;;;;;;;1.10;1.00;;;18.40;99.90;;;;;;5096515;28;20184;-72
2022/10/22 00:50:28;;;;;;;1.10;1.00;;;18.40;99.90;;;;;;5096605;28;20180;-72
2022/10/22 00:52:56;;;;;;;2.47;1.27;;;18.40;99.90;;;;;;5095780;28;20236;-72
2022/10/22 00:55:25;;;;;;;1.15;1.00;;;18.40;99.90;;;;;;5077035;28;20261;-71
2022/10/22 00:57:54;;;;;;;1.10;0.95;;;18.40;99.90;;;;;;5077621;28;20274;-71
2022/10/22 01:00:21;;;;;;;1.00;1.00;;;18.40;99.90;;;;;;5096162;28;20195;-72
2022/10/22 01:02:50;;;;;;;1.83;1.17;;;18.40;99.90;;;;;;5096027;28;20226;-71
2022/10/22 01:05:17;;;;;;;1.55;1.20;;;18.40;99.90;;;;;;5096095;28;20674;-71
2022/10/22 01:07:48;;;;;;;2.10;1.10;;;18.40;99.90;;;;;;5079644;28;20180;-71
2022/10/22 01:10:35;;;;;;;1.85;1.00;;;18.40;99.90;;;;;;5096371;28;20200;-71
2022/10/22 01:13:40;;;;;;;1.55;0.90;;;18.40;99.90;;;;;;5113369;28;20328;-72
2022/10/22 01:16:33;;;;;;;1.88;1.10;;;18.40;99.90;;;;;;5096237;28;20276;-72
2022/10/22 01:19:33;;;;;;;0.82;0.82;;;18.40;99.90;;;;;;5105542;28;20241;-72
2022/10/22 01:22:30;;;;;;;0.80;0.80;;;18.40;99.90;;;;;;5095529;28;20188;-72
2022/10/22 01:25:13;;;;;;;1.00;0.90;;;18.40;99.90;;;;;;5085134;28;20216;-72
2022/10/22 01:28:11;;;;;;;1.63;1.23;;;18.40;99.90;;;;;;5096129;28;20173;-72
2022/10/22 01:30:39;;;;;;;0.90;0.90;;;18.40;99.90;;;;;;5110369;28;20184;-72
2022/10/22 01:33:10;;;;;;;0.85;0.82;;;18.40;99.90;;;;;;5095180;28;20199;-72
2022/10/22 01:35:43;;;;;;;1.40;1.02;;;18.40;99.90;;;;;;5078029;28;20203;-72
2022/10/22 01:38:17;;;;;;;1.15;1.10;;;18.40;99.90;;;;;;5113699;28;20184;-71
2022/10/22 01:40:44;;;;;;;1.10;0.80;;;18.40;99.90;;;;;;5078683;28;20193;-71
2022/10/22 01:43:10;;;;;;;1.15;0.82;;;18.40;99.90;;;;;;5095558;28;20184;-71
2022/10/22 01:45:42;;;;;;;1.20;1.10;;;18.40;99.90;;;;;;5078525;28;20579;-72
2022/10/22 01:48:35;;;;;;;1.15;0.90;;;18.40;99.90;;;;;;5095560;28;20180;-72
2022/10/22 01:51:25;;;;;;;0.90;0.88;;;18.40;99.90;;;;;;5087494;28;20181;-72
2022/10/22 01:54:05;;;;;;;0.80;0.80;;;18.40;99.90;;;;;;5078168;28;20211;-71
2022/10/22 01:57:21;;;;;;;0.80;0.80;;;18.40;99.90;;;;;;5113519;28;20169;-72
2022/10/22 01:59:52;;;;;;;1.00;0.90;;;18.40;99.90;;;;;;5013891;28;20574;-71
2022/10/22 02:02:41;;;;;;;1.25;1.05;;;18.40;99.90;;;;;;5067064;28;20272;-71
2022/10/22 02:05:39;;;;;;;1.20;1.00;;;18.40;99.90;;;;;;5077966;28;20257;-71
2022/10/22 02:08:14;;;;;;;1.20;1.10;;;18.40;99.90;;;;;;5093535;28;20188;-72
2022/10/22 02:10:46;;;;;;;1.20;1.10;;;18.40;99.90;;;;;;5077246;28;20244;-72
2022/10/22 02:13:18;;;;;;;0.95;0.88;;;18.40;99.90;;;;;;5106160;28;20176;-72
2022/10/22 02:15:49;;;;;;;0.95;0.77;;;18.30;99.90;;;;;;5078943;28;20287;-72
2022/10/22 02:18:19;;;;;;;0.85;0.85;;;18.40;99.90;;;;;;5077736;28;20179;-72
2022/10/22 02:20:46;;;;;;;0.90;0.80;;;18.30;99.90;;;;;;5095093;28;20184;-72
2022/10/22 02:23:12;;;;;;;1.25;0.95;;;18.40;99.90;;;;;;5094823;28;20172;-71
2022/10/22 02:25:43;;;;;;;1.65;0.93;;;18.30;99.90;;;;;;5112943;28;20192;-71
2022/10/22 02:28:33;;;;;;;1.13;1.00;;;18.40;99.90;;;;;;5094778;28;20195;-72
2022/10/22 02:31:14;;;;;;;0.80;0.80;;;18.40;99.90;;;;;;5094588;28;20180;-72
2022/10/22 02:33:50;;;;;;;0.90;0.82;;;18.30;99.90;;;;;;5078038;28;20295;-72
2022/10/22 02:36:18;;;;;;;1.45;0.73;;;18.40;99.90;;;;;;5111935;28;20184;-72
2022/10/22 02:38:47;;;;;;;1.15;1.00;;;18.30;99.90;;;;;;5077721;28;20263;-71
2022/10/22 02:41:14;;;;;;;0.90;0.80;;;18.40;99.90;;;;;;5077898;28;20275;-70
2022/10/22 02:43:44;;;;;;;0.93;0.77;;;18.40;99.90;;;;;;5077904;28;20247;-71
2022/10/22 02:46:10;;;;;;;1.48;0.77;;;18.30;99.90;;;;;;5094628;28;20184;-72
2022/10/22 02:48:36;;;;;;;0.77;0.77;;;18.30;99.90;;;;;;5077665;28;20176;-71
2022/10/22 02:51:03;;;;;;;0.90;0.70;;;18.30;99.90;;;;;;5094878;28;20205;-72
2022/10/22 02:53:28;;;;;;;1.38;0.90;;;18.40;99.90;;;;;;5094182;28;20253;-71
2022/10/22 02:55:54;;;;;;;1.08;0.98;;;18.40;99.90;;;;;;5094801;28;20216;-71
2022/10/22 02:58:20;;;;;;;0.80;0.80;;;18.30;99.90;;;;;;5112623;28;20180;-72
2022/10/22 03:00:45;;;;;;;0.93;0.70;;;18.30;99.90;;;;;;5094144;28;20562;-71
2022/10/22 03:03:11;;;;;;;1.45;0.80;;;18.30;99.90;;;;;;5077352;28;20180;-71
2022/10/22 03:05:37;;;;;;;0.80;0.80;;;18.40;99.90;;;;;;5108149;22;20241;-67
2022/10/22 03:08:03;;;;;;;0.68;0.68;;;18.30;99.90;;;;;;5037770;28;20186;-68
2022/10/22 03:10:28;;;;;;;0.70;0.68;;;18.30;99.90;;;;;;5054113;28;20730;-68
2022/10/22 03:12:55;;;;;;;0.80;0.80;;;18.40;99.90;;;;;;5053962;28;20177;-68
2022/10/22 03:15:20;;;;;;;0.70;0.70;;;18.40;99.90;;;;;;5050553;28;20218;-68
2022/10/22 03:17:46;;;;;;;0.70;0.70;;;18.30;99.90;;;;;;5050600;28;20198;-68
2022/10/22 03:20:12;;;;;;;0.70;0.70;;;18.30;99.90;;;;;;5050694;28;20193;-68
2022/10/22 03:22:40;;;;;;;0.70;0.70;;;18.40;99.90;;;;;;5051534;28;20257;-67
2022/10/22 03:25:13;;;;;;;0.73;0.70;;;18.30;99.90;;;;;;5034097;28;20206;-68
2022/10/22 03:27:40;;;;;;;0.70;0.70;;;18.30;99.90;;;;;;5017807;28;20186;-68
2022/10/22 03:30:09;;;;;;;0.60;0.60;;;18.30;99.90;;;;;;5025574;28;20206;-67
2022/10/22 03:32:34;;;;;;;0.45;0.45;;;18.30;99.90;;;;;;5051585;28;20262;-67
2022/10/22 03:35:00;;;;;;;0.73;0.73;;;18.30;99.90;;;;;;5017393;28;20280;-67
2022/10/22 03:37:26;;;;;;;0.70;0.70;;;18.30;99.90;;;;;;5017724;28;20243;-67
2022/10/22 03:39:53;;;;;;;1.20;0.73;;;18.30;99.90;;;;;;5033985;28;20178;-67
2022/10/22 03:42:20;;;;;;;0.68;0.68;;;18.30;99.90;;;;;;5017336;28;20566;-67
2022/10/22 03:44:46;;;;;;;0.77;0.77;;;18.30;99.90;;;;;;5033883;28;20692;-68
2022/10/22 03:47:13;;;;;;;0.60;0.60;;;18.30;99.90;;;;;;5033765;28;20187;-68
2022/10/22 03:49:39;;;;;;;0.60;0.60;;;18.30;99.90;;;;;;5033977;28;20243;-68
2022/10/22 03:52:11;;;;;;;1.10;0.75;;;18.30;99.90;;;;;;5051469;28;20253;-68
2022/10/22 03:54:38;;;;;;;0.60;0.60;;;18.30;99.90;;;;;;5033540;28;20669;-67
2022/10/22 03:57:05;;;;;;;0.70;0.70;;;18.30;99.90;;;;;;5049637;28;20178;-68
2022/10/22 03:59:36;;;;;;;0.55;0.55;;;18.30;99.90;;;;;;5049502;28;20183;-67
2022/10/22 04:02:02;;;;;;;0.70;0.70;;;18.30;99.90;;;;;;5020774;28;20186;-68
2022/10/22 04:04:29;;;;;;;1.20;0.70;;;18.30;99.90;;;;;;5037062;28;20210;-68
2022/10/22 04:06:54;;;;;;;0.60;0.60;;;18.30;99.90;;;;;;5037144;28;20249;-68
2022/10/22 04:09:20;;;;;;;0.65;0.65;;;18.30;99.90;;;;;;5037228;28;20305;-68
2022/10/22 04:11:46;;;;;;;0.68;0.50;;;18.30;99.90;;;;;;5036864;28;20190;-68
2022/10/22 04:14:11;;;;;;;0.60;0.60;;;18.30;99.90;;;;;;5037087;28;20194;-67
2022/10/22 04:16:39;;;;;;;0.82;0.70;;;18.30;99.90;;;;;;5020475;28;20198;-68
2022/10/22 04:19:06;;;;;;;0.50;0.50;;;18.30;99.90;;;;;;5020803;28;20179;-68
2022/10/22 04:21:32;;;;;;;0.40;0.40;;;18.30;99.90;;;;;;5036643;28;20193;-68
2022/10/22 04:23:58;;;;;;;1.08;0.70;;;18.30;99.90;;;;;;5020235;28;20694;-68
2022/10/22 04:26:24;;;;;;;1.05;0.60;;;18.30;99.90;;;;;;5020427;28;20234;-68
2022/10/22 04:28:51;;;;;;;0.60;0.52;;;18.30;99.90;;;;;;5036648;28;20271;-67
2022/10/22 04:31:20;;;;;;;0.70;0.70;;;18.30;99.90;;;;;;5036896;28;20193;-67
2022/10/22 04:33:51;;;;;;;0.73;0.70;;;18.30;99.90;;;;;;5036357;28;20202;-68
2022/10/22 04:36:17;;;;;;;0.88;0.70;;;18.30;99.90;;;;;;5036759;28;20214;-68
2022/10/22 04:38:46;;;;;;;0.75;0.75;;;18.30;99.90;;;;;;5040323;28;20182;-68
2022/10/22 04:41:14;;;;;;;0.50;0.50;;;18.30;99.90;;;;;;5036366;28;20187;-67
2022/10/22 04:43:41;;;;;;;0.60;0.60;;;18.30;99.90;;;;;;5052894;28;20218;-67
2022/10/22 04:46:09;;;;;;;0.63;0.50;;;18.30;99.90;;;;;;5019875;28;20216;-67
2022/10/22 04:48:35;;;;;;;0.50;0.50;;;18.30;99.90;;;;;;5069686;28;20191;-67
2022/10/22 04:51:03;;;;;;;1.55;0.90;;;18.30;99.90;;;;;;5036405;28;20189;-67
2022/10/22 04:53:28;;;;;;;0.60;0.60;;;18.30;99.90;;;;;;5036014;28;20190;-67
2022/10/22 04:55:54;;;;;;;0.50;0.50;;;18.30;99.90;;;;;;5052820;28;20194;-67
2022/10/22 04:58:20;;;;;;;1.65;0.75;;;18.30;99.90;;;;;;5034458;28;20240;-67
2022/10/22 05:00:46;;;;;;;0.60;0.60;;;18.30;99.90;;;;;;5052888;28;20177;-67
2022/10/22 05:03:11;;;;;;;0.50;0.50;;;18.30;99.90;;;;;;5035894;28;20244;-67
2022/10/22 05:05:37;;;;;;;1.23;0.57;;;18.30;99.90;;;;;;5035714;28;20694;-67
2022/10/22 05:08:03;;;;;;;1.00;0.73;;;18.30;99.90;;;;;;5035781;28;20178;-67
2022/10/22 05:10:29;;;;;;;1.10;0.50;;;18.30;99.90;;;;;;5035894;28;20198;-67
2022/10/22 05:12:54;;;;;;;0.52;0.52;;;18.30;99.90;;;;;;5035692;28;20183;-67
2022/10/22 05:15:20;;;;;;;0.68;0.68;;;18.30;99.90;;;;;;5053578;28;20229;-67
2022/10/22 05:17:46;;;;;;;0.63;0.57;;;18.30;99.90;;;;;;5036002;28;20681;-67
2022/10/22 05:20:11;;;;;;;0.70;0.70;;;18.30;99.90;;;;;;5035842;28;20189;-67
2022/10/22 05:22:37;;;;;;;0.50;0.50;;;18.30;99.90;;;;;;5053453;28;20244;-67
2022/10/22 05:25:03;;;;;;;0.50;0.50;;;18.30;99.90;;;;;;5053506;28;20328;-67
2022/10/22 05:27:29;;;;;;;0.63;0.60;;;18.30;99.90;;;;;;5035655;28;20650;-67
2022/10/22 05:29:55;;;;;;;0.63;0.60;;;18.30;99.90;;;;;;5035405;28;20216;-67
2022/10/22 05:32:20;;;;;;;0.63;0.63;;;18.30;99.90;;;;;;5035476;28;20185;-67
2022/10/22 05:34:46;;;;;;;0.82;0.70;;;18.30;99.90;;;;;;5018873;28;20218;-68
2022/10/22 05:37:12;;;;;;;0.47;0.47;;;18.30;99.90;;;;;;5035682;28;20187;-68
2022/10/22 05:39:39;;;;;;;0.60;0.60;;;18.30;99.90;;;;;;5035218;28;20189;-68
2022/10/22 05:42:05;;;;;;;0.50;0.50;;;18.30;99.90;;;;;;5018942;28;20201;-68
2022/10/22 05:44:31;;;;;;;0.60;0.60;;;18.30;99.90;;;;;;5018858;28;20210;-68
2022/10/22 05:46:56;;;;;;;0.60;0.60;;;18.30;99.90;;;;;;5018646;28;20194;-68
2022/10/22 05:49:22;;;;;;;1.15;0.50;;;18.30;99.90;;;;;;5018691;28;20190;-68
2022/10/22 05:51:48;;;;;;;0.52;0.52;;;18.30;99.90;;;;;;5018358;28;20191;-68
2022/10/22 05:54:19;;;;;;;0.43;0.43;;;18.30;99.90;;;;;;5018521;28;20280;-68
2022/10/22 05:56:45;;;;;;;0.50;0.50;;;18.30;99.90;;;;;;5018665;28;20273;-68
2022/10/22 05:59:11;;;;;;;0.88;0.60;;;18.30;99.90;;;;;;5052901;28;20205;-67
2022/10/22 06:01:38;;;;;;;0.50;0.50;;;18.30;99.90;;;;;;5052796;28;20167;-67
2022/10/22 06:04:10;;;;;;;0.77;0.70;;;18.30;99.90;;;;;;5035078;28;20186;-67
2022/10/22 06:06:46;;;;;;;0.70;0.65;;;18.20;99.90;;;;;;5034462;28;20178;-68
2022/10/22 06:09:35;;;;;;;0.60;0.55;;;18.30;99.90;;;;;;5018430;28;20190;-68
2022/10/22 06:12:01;;;;;;;0.77;0.65;;;18.20;99.90;;;;;;5018265;28;20182;-68
2022/10/22 06:14:28;;;;;;;0.65;0.65;;;18.30;99.90;;;;;;5017787;28;20217;-68
2022/10/22 06:16:54;;;;;;;0.70;0.70;;;18.30;99.90;;;;;;5034397;28;20186;-68
2022/10/22 06:19:25;;;;;;;0.65;0.63;;;18.30;99.90;;;;;;5026772;28;20175;-68
2022/10/22 06:21:52;;;;;;;0.77;0.77;;;18.30;99.90;;;;;;5034121;28;20262;-68
2022/10/22 06:24:17;;;;;;;0.70;0.70;;;18.30;99.90;;;;;;5033228;28;20186;-67
2022/10/22 06:26:43;;;;;;;0.60;0.60;;;18.20;99.90;;;;;;5034605;28;20185;-67
2022/10/22 06:29:10;;;;;;;0.60;0.60;;;18.20;99.90;;;;;;5052462;28;20186;-67
2022/10/22 06:31:36;;;;;;;0.60;0.60;;;18.20;99.90;;;;;;5034381;28;20195;-67
2022/10/22 06:34:09;;;;;;;0.73;0.60;;;18.20;99.90;;;;;;5034503;28;20203;-67
2022/10/22 06:36:35;;;;;;;0.60;0.60;;;18.30;99.90;;;;;;5051455;28;20163;-67
2022/10/22 06:39:01;;;;;;;0.65;0.50;;;18.20;99.90;;;;;;5028404;28;20541;-68
2022/10/22 06:41:27;;;;;;;0.70;0.60;;;18.30;99.90;;;;;;5017795;28;20206;-67
2022/10/22 06:43:53;;;;;;;0.70;0.70;;;18.30;99.90;;;;;;5017690;28;20192;-67
2022/10/22 06:46:21;;;;;;;0.55;0.55;;;18.30;99.90;;;;;;5018210;28;20209;-68
2022/10/22 06:48:59;;;;;;;1.15;0.88;;;18.20;99.90;;;;;;5017840;28;20190;-67
2022/10/22 06:51:26;;;;;;;0.80;0.80;;;18.20;99.90;;;;;;5034191;28;20178;-67
2022/10/22 06:53:54;;;;;;;0.65;0.65;;;18.20;99.90;;;;;;5033976;28;20209;-67
2022/10/22 06:56:23;;;;;;;0.93;0.60;;;18.20;99.90;;;;;;5034632;28;20241;-68
2022/10/22 06:58:52;;;;;;;0.50;0.50;;;18.30;99.90;;;;;;5034155;28;20672;-67
2022/10/22 07:01:23;;;;;;;0.50;0.50;;;18.20;99.90;;;;;;5034259;28;20183;-67
2022/10/22 07:03:50;;;;;;;0.75;0.60;;;18.20;99.90;;;;;;5017833;28;20174;-67
2022/10/22 07:06:17;;;;;;;0.73;0.73;;;18.30;99.90;;;;;;5034273;28;20235;-67
2022/10/22 07:08:43;;;;;;;0.60;0.60;;;18.20;99.90;;;;;;5032916;28;20205;-67
2022/10/22 07:11:19;;;;;;;1.05;0.70;;;18.30;99.90;;;;;;5034184;28;20190;-67
2022/10/22 07:13:46;;;;;;;0.55;0.50;;;18.30;99.90;;;;;;5033939;28;20210;-67
2022/10/22 07:16:13;;;;;;;0.60;0.60;;;18.30;99.90;;;;;;5034005;28;20293;-67
2022/10/22 07:18:40;;;;;;;0.70;0.70;;;18.30;99.90;;;;;;5034438;28;20186;-67
2022/10/22 07:21:08;;;;;;;0.60;0.60;;;18.30;99.90;;;;;;5051943;28;20166;-67
2022/10/22 07:23:34;;;;;;;0.68;0.68;;;18.30;99.90;;;;;;5033998;28;20186;-67
2022/10/22 07:26:03;;;;;;;0.60;0.50;;;18.30;99.90;;;;;;5017716;28;20683;-67
2022/10/22 07:28:29;;;;;;;2.38;0.68;;;18.30;99.90;;;;;;5033965;28;20182;-67
2022/10/22 07:30:55;;;;;;;0.57;0.57;;;18.30;99.90;;;;;;5033933;28;20206;-67
2022/10/22 07:33:21;;;;;;;0.57;0.57;;;18.30;99.90;;;;;;5053891;28;20175;-67
2022/10/22 07:35:46;;;;;;;1.20;0.80;;;18.30;99.90;;;;;;5037618;28;20206;-67
2022/10/22 07:38:12;;;;;;;0.73;0.73;;;18.30;99.90;;;;;;5055625;28;20308;-67
2022/10/22 07:40:38;;;;;;;0.50;0.50;;;18.30;99.90;;;;;;5021475;28;20235;-67
2022/10/22 07:43:05;;;;;;;0.60;0.60;;;18.30;99.90;;;;;;5055585;28;20598;-67
2022/10/22 07:45:32;;;;;;;0.70;0.70;;;18.30;99.90;;;;;;5037596;28;20266;-66
2022/10/22 07:47:59;;;;;;;1.38;0.50;;;18.30;99.90;;;;;;5054591;28;20197;-67
2022/10/22 07:50:25;;;;;;;0.40;0.40;;;18.30;99.90;;;;;;5055362;28;20273;-67
2022/10/22 07:52:51;;;;;;;0.85;0.70;;;18.30;99.90;;;;;;5037429;28;20187;-67
2022/10/22 07:55:17;;;;;;;0.50;0.50;;;18.30;99.90;;;;;;5037355;28;20297;-67
2022/10/22 07:57:43;;;;;;;0.60;0.60;;;18.30;99.90;;;;;;5021104;28;20193;-67
2022/10/22 08:00:09;;;;;;;0.70;0.50;;;18.30;99.90;;;;;;5021057;28;20228;-67
2022/10/22 08:02:38;;;;;;;0.60;0.60;;;18.30;99.90;;;;;;5054992;28;20255;-67
2022/10/22 08:05:04;;;;;;;1.05;0.60;;;18.30;99.90;;;;;;5054817;28;20222;-67
2022/10/22 08:07:30;;;;;;;0.77;0.50;;;18.30;99.90;;;;;;5020804;28;20229;-67
2022/10/22 08:09:56;;;;;;;0.65;0.60;;;18.30;99.90;;;;;;5037043;28;20226;-67
2022/10/22 08:12:22;;;;;;;1.35;0.70;;;18.30;99.90;;;;;;5036741;28;20236;-67
2022/10/22 08:14:47;;;;;;;0.90;0.60;;;18.30;99.90;;;;;;5036648;28;20268;-67
2022/10/22 08:17:14;;;;;;;0.82;0.75;;;18.30;99.90;;;;;;5037187;28;20195;-68
2022/10/22 08:19:40;;;;;;;0.40;0.40;;;18.30;99.90;;;;;;5020667;28;20187;-67
2022/10/22 08:22:06;;;;;;;0.70;0.70;;;18.30;99.90;;;;;;5036887;28;20187;-68
2022/10/22 08:24:31;;;;;;;0.40;0.40;;;18.30;99.90;;;;;;5036757;28;20209;-67
2022/10/22 08:26:57;;;;;;;0.75;0.60;;;18.30;99.90;;;;;;5020702;28;20186;-67
2022/10/22 08:29:25;;;;;;;0.50;0.50;;;18.30;99.90;;;;;;5036881;28;20198;-67
2022/10/22 08:31:52;;;;;;;0.80;0.73;;;18.30;99.90;;;;;;5036742;28;20183;-67
2022/10/22 08:34:19;;;;;;;0.73;0.60;;;18.40;99.90;;;;;;5036339;28;20585;-67
2022/10/22 08:36:46;;;;;;;0.82;0.70;;;18.30;99.90;;;;;;5036749;28;20201;-67
2022/10/22 08:39:12;;;;;;;0.70;0.70;;;18.40;99.90;;;;;;5039113;28;20190;-66
2022/10/22 08:42:34;;;;;;;0.70;0.52;;;18.40;99.90;;;;;;5074438;28;20170;-67
2022/10/22 08:45:34;;;;;;;0.50;0.50;;;18.40;99.90;;;;;;5072674;28;20201;-67
2022/10/22 08:48:40;;;;;;;0.70;0.70;;;18.40;99.90;;;;;;5040075;28;20241;-68
2022/10/22 08:51:16;;;;;;;0.70;0.70;;;18.40;99.90;;;;;;5056384;28;20703;-68
2022/10/22 08:54:30;;;;;;;0.65;0.60;;;18.40;99.90;;;;;;5072654;28;20292;-67
2022/10/22 08:57:05;;;;;;;0.60;0.60;;;18.40;99.90;;;;;;5073239;28;20193;-68
2022/10/22 08:59:46;;;;;;;1.30;0.57;;;18.40;99.90;;;;;;5056219;28;20242;-67
2022/10/22 09:02:29;;;;;;;2.05;0.60;;;18.40;99.90;;;;;;5072663;28;20648;-67
2022/10/22 09:05:37;;;;;;;1.00;0.55;;;18.40;99.90;;;;;;5055988;28;20247;-67
2022/10/22 09:08:04;;;;;;;2.00;0.57;;;18.40;99.90;;;;;;5061779;28;20198;-67
2022/10/22 09:10:38;;;;;;;1.98;1.00;;;18.40;99.90;;;;;;5055927;28;20186;-67
2022/10/22 09:13:04;;;;;;;0.68;0.68;;;18.40;99.90;;;;;;5056030;28;20178;-67
2022/10/22 09:15:30;;;;;;;2.55;0.95;;;18.40;99.90;;;;;;5038979;28;20220;-67
2022/10/22 09:18:24;;;;;;;2.53;0.50;;;18.40;99.90;;;;;;5072494;28;20278;-67
2022/10/22 09:21:27;;;;;;;0.60;0.60;;;18.40;99.90;;;;;;5055997;28;20268;-68
2022/10/22 09:24:10;;;;;;;1.50;0.85;;;18.40;99.90;;;;;;5039225;28;20647;-68
2022/10/22 09:26:39;;;;;;;0.80;0.60;;;18.40;99.90;;;;;;5055712;28;20174;-67
2022/10/22 09:29:06;;;;;;;4.55;1.08;;;18.40;99.90;;;;;;5038960;28;20265;-68
2022/10/22 09:31:33;;;;;;;1.17;0.70;;;18.40;99.90;;;;;;5055453;28;20182;-67
2022/10/22 09:34:04;;;;;;;2.65;0.75;;;18.40;99.90;;;;;;5055231;28;20557;-68
2022/10/22 09:36:31;;;;;;;1.60;0.88;;;18.40;99.90;;;;;;5039095;28;20630;-68
2022/10/22 09:38:57;;;;;;;0.75;0.70;;;18.40;99.90;;;;;;5055377;28;20174;-67
2022/10/22 09:41:30;;;;;;;2.03;0.80;;;18.50;99.90;;;;;;5073250;28;20178;-67
2022/10/22 09:43:58;;;;;;;2.03;0.70;;;18.40;99.90;;;;;;5038480;28;20192;-68
2022/10/22 09:46:29;;;;;;;2.83;1.50;;;18.50;99.90;;;;;;5038917;28;20201;-68
2022/10/22 09:48:54;;;;;;;1.52;1.10;;;18.50;99.90;;;;;;5072348;28;20174;-67
2022/10/22 09:51:37;;;;;;;0.60;0.60;;;18.50;99.90;;;;;;5071703;28;20710;-67
2022/10/22 09:54:18;;;;;;;3.35;0.82;;;18.50;99.90;;;;;;5054695;28;20197;-67
2022/10/22 09:56:51;;;;;;;1.52;0.77;;;18.50;99.90;;;;;;5054869;28;20182;-67
2022/10/22 09:59:25;;;;;;;2.60;1.13;;;18.50;99.90;;;;;;5055003;28;20638;-67
2022/10/22 10:02:20;;;;;;;1.67;0.68;;;18.50;99.90;;;;;;5072799;28;20223;-67
2022/10/22 10:04:53;;;;;;;1.92;0.77;;;18.50;99.90;;;;;;5054560;28;20227;-67
2022/10/22 10:07:25;;;;;;;1.38;0.82;;;18.50;99.90;;;;;;5055229;28;20276;-67
2022/10/22 10:09:53;;;;;;;2.47;0.85;;;18.50;99.90;;;;;;5054852;28;20208;-68
2022/10/22 10:12:44;;;;;;;1.42;0.90;;;18.50;99.90;;;;;;5054732;28;20181;-67
2022/10/22 10:15:37;;;;;;;3.28;0.98;;;18.50;99.90;;;;;;5055000;28;20290;-67
2022/10/22 10:18:49;;;;;;;2.30;0.98;;;18.50;99.90;;;;;;5038514;28;20190;-67
2022/10/22 10:22:15;;;;;;;2.75;1.13;;;18.50;99.90;;;;;;5027231;28;20201;-67
2022/10/22 10:30:15;;;;;;;1.35;0.88;;;18.50;99.90;;;;;;5030984;28;20285;-73
2022/10/22 10:33:05;;;;;;;2.22;1.23;;;18.50;99.90;;;;;;5047823;28;20187;-72
2022/10/22 10:36:05;;;;;;;1.50;1.00;;;18.50;99.90;;;;;;5028096;28;20220;-71
2022/10/22 10:38:44;;;;;;;3.03;1.20;;;18.50;99.90;;;;;;5011886;28;20183;-72
2022/10/22 10:41:40;;;;;;;1.25;1.00;;;18.50;99.90;;;;;;5037364;28;20180;-72
2022/10/22 10:44:44;;;;;;;2.25;0.93;;;18.50;99.90;;;;;;5027832;28;20184;-72
2022/10/22 10:47:44;;;;;;;1.67;0.80;;;18.50;99.90;;;;;;5012752;28;20187;-73
2022/10/22 10:50:28;;;;;;;2.25;1.00;;;18.50;99.90;;;;;;5011891;28;20275;-72
2022/10/22 10:53:41;;;;;;;1.08;0.90;;;18.50;99.90;;;;;;5011694;28;20250;-72
2022/10/22 10:56:50;;;;;;;1.60;0.93;;;18.50;99.90;;;;;;4996020;28;20281;-72
2022/10/22 10:59:33;;;;;;;2.10;1.02;;;18.50;99.90;;;;;;5008180;28;20187;-72
2022/10/22 11:02:36;;;;;;;1.27;0.77;;;18.50;99.90;;;;;;5031182;28;20605;-71
2022/10/22 11:05:42;;;;;;;1.65;0.70;;;18.50;99.90;;;;;;5014962;28;20236;-72
2022/10/22 11:08:32;;;;;;;2.35;1.13;;;18.50;99.90;;;;;;5035026;28;20175;-72
2022/10/22 11:11:11;;;;;;;4.55;3.40;;;18.50;99.90;;;;;;5035263;28;20188;-72
2022/10/22 11:13:51;;;;;;;12.90;8.25;;;18.50;99.90;;;;;;5034720;28;20192;-72
2022/10/22 11:16:44;;;;;;;15.27;8.35;;;18.50;99.90;;;;;;5018123;28;20242;-72
2022/10/22 11:19:31;;;;;;;12.43;7.85;;;18.50;99.90;;;;;;5018371;28;20191;-72
2022/10/22 11:22:35;;;;;;;12.13;8.50;;;18.50;99.90;;;;;;5034994;28;20182;-72
2022/10/22 11:25:11;;;;;;;19.77;12.85;;;18.50;99.90;;;;;;5034665;28;20206;-72
2022/10/22 11:28:03;;;;;;;28.33;16.83;;;18.50;99.90;;;;;;5021946;28;20303;-72
2022/10/22 11:30:36;;;;;;;32.28;21.42;;;18.50;99.90;;;;;;5034669;28;20180;-72
2022/10/22 11:33:10;;;;;;;34.42;21.00;;;18.50;99.90;;;;;;5034718;28;20195;-72
2022/10/22 11:35:43;;;;;;;32.60;21.83;;;18.50;99.90;;;;;;5057208;28;20215;-72
2022/10/22 11:38:16;;;;;;;42.88;27.10;;;18.50;99.90;;;;;;5028677;28;20193;-72
2022/10/22 11:41:08;;;;;;;46.50;30.77;;;18.50;99.90;;;;;;5034377;28;20172;-72
2022/10/22 11:44:33;;;;;;;50.95;32.30;;;18.60;99.90;;;;;;5035276;28;20172;-72
2022/10/22 11:47:17;;;;;;;51.80;33.78;;;18.60;99.90;;;;;;4996829;28;20216;-72
2022/10/22 11:49:55;;;;;;;49.72;32.15;;;18.50;99.90;;;;;;5031430;28;20199;-72
2022/10/22 11:52:44;;;;;;;55.75;36.10;;;18.50;99.90;;;;;;5034052;28;20179;-71
2022/10/22 11:56:11;;;;;;;55.22;34.92;;;18.50;99.90;;;;;;5033554;28;20706;-71
2022/10/22 11:58:46;;;;;;;59.75;36.28;;;18.50;99.90;;;;;;4957945;28;20198;-71
2022/10/22 12:01:11;;;;;;;58.38;36.03;;;18.50;99.90;;;;;;4957976;28;20193;-72
2022/10/22 12:03:42;;;;;;;53.63;35.72;;;18.50;99.90;;;;;;5006947;28;20265;-72
2022/10/22 12:06:11;;;;;;;58.50;35.30;;;18.60;99.90;;;;;;5017494;28;20207;-72
2022/10/22 12:09:05;;;;;;;54.67;37.22;;;18.50;99.90;;;;;;5017726;28;20654;-72
2022/10/22 12:11:48;;;;;;;55.38;36.85;;;18.50;99.90;;;;;;5017403;28;20183;-72
2022/10/22 12:14:49;;;;;;;57.05;36.55;;;18.50;99.90;;;;;;5033842;28;20222;-71
2022/10/22 12:17:19;;;;;;;57.47;38.13;;;18.60;99.90;;;;;;5033715;28;20297;-71
2022/10/22 12:20:11;;;;;;;59.88;39.92;;;18.50;99.90;;;;;;5033008;28;20245;-72
2022/10/22 12:22:38;;;;;;;62.92;38.25;;;18.50;99.90;;;;;;5017422;28;20186;-72
2022/10/22 12:25:22;;;;;;;57.80;39.15;;;18.50;99.90;;;;;;5050576;28;20217;-72
2022/10/22 12:27:56;;;;;;;58.85;37.17;;;18.60;99.90;;;;;;5043205;28;20210;-72
2022/10/22 12:30:30;;;;;;;57.20;38.20;;;18.50;99.90;;;;;;5039032;28;20186;-72
2022/10/22 12:33:05;;;;;;;56.95;37.40;;;18.50;99.90;;;;;;5013348;28;20183;-72
2022/10/22 12:35:40;;;;;;;60.20;39.00;;;18.50;99.90;;;;;;5029875;28;20225;-73
2022/10/22 12:38:19;;;;;;;59.45;40.42;;;18.60;99.90;;;;;;5030104;28;20178;-73
2022/10/22 12:40:46;;;;;;;59.95;38.58;;;18.50;99.90;;;;;;5013585;28;20314;-72
2022/10/22 12:43:14;;;;;;;52.47;37.58;;;18.50;99.90;;;;;;5013211;28;20262;-71
2022/10/22 12:45:45;;;;;;;56.28;38.53;;;18.50;99.90;;;;;;4996932;28;20299;-72
2022/10/22 12:48:22;;;;;;;54.70;36.38;;;18.60;99.90;;;;;;5013417;28;20215;-72
2022/10/22 12:51:01;;;;;;;53.72;36.97;;;18.60;99.90;;;;;;5013756;28;20180;-72
2022/10/22 12:53:36;;;;;;;51.45;36.70;;;18.50;99.90;;;;;;5014373;28;20271;-73
2022/10/22 12:56:16;;;;;;;55.63;36.17;;;18.50;99.90;;;;;;5014200;28;20222;-72
2022/10/22 12:58:53;;;;;;;48.63;34.22;;;18.50;99.90;;;;;;5032870;28;20225;-72
2022/10/22 13:01:20;;;;;;;53.70;35.75;;;18.50;99.90;;;;;;5032917;28;20178;-72
2022/10/22 13:04:04;;;;;;;51.33;35.05;;;18.50;99.90;;;;;;5032917;28;20303;-72
2022/10/22 13:06:34;;;;;;;54.80;36.40;;;18.50;99.90;;;;;;5032773;28;20214;-72
2022/10/22 13:09:23;;;;;;;49.90;34.38;;;18.50;99.90;;;;;;5016389;28;20187;-72
2022/10/22 13:12:03;;;;;;;54.13;36.10;;;18.50;99.90;;;;;;5033026;28;20167;-72
2022/10/22 13:14:37;;;;;;;53.38;34.47;;;18.50;99.90;;;;;;5032506;28;20195;-72
2022/10/22 13:17:13;;;;;;;48.33;33.50;;;18.50;99.90;;;;;;5019440;28;20203;-72
2022/10/22 13:19:52;;;;;;;51.25;33.72;;;18.50;99.90;;;;;;5032552;28;20175;-72
2022/10/22 13:22:35;;;;;;;47.33;32.55;;;18.50;99.90;;;;;;5032222;28;20178;-71